sensor_id;sensor_type;location;lat;lon;timestamp;temperature;humidity
12889;DHT22;56848;49.896;11.424;2022-10-15T04:01:15;12.80;99.90
12889;DHT22;56848;49.896;11.424;2022-10-15T04:03:41;12.80;99.90
12889;DHT22;56848;49.896;11.424;2022-10-15T04:06:07;12.80;99.90
12889;DHT22;56848;49.896;11.424;2022-10-15T04:08:32;12.80;99.90
12889;DHT22;56848;49.896;11.424;2022-10-15T04:10:58;12.80;99.90
12889;DHT22;56848;49.896;11.424;2022-10-15T04:15:54;12.80;99.90
12889;DHT22;56848;49.896;11.424;2022-10-15T04:18:21;12.80;99.90
12889;DHT22;56848;49.896;11.424;2022-10-15T04:20:50;12.90;99.90
12889;DHT22;56848;49.896;11.424;2022-10-15T04:23:16;12.80;99.90
12889;DHT22;56848;49.896;11.424;2022-10-15T04:25:42;12.80;99.90
12889;DHT22;56848;49.896;11.424;2022-10-15T04:28:08;12.80;99.90
12889;DHT22;56848;49.896;11.424;2022-10-15T04:30:34;12.80;99.90
12889;DHT22;56848;49.896;11.424;2022-10-15T04:32:59;12.80;99.90
12889;DHT22;56848;49.896;11.424;2022-10-15T04:35:25;12.80;99.90
12889;DHT22;56848;49.896;11.424;2022-10-15T04:37:51;12.80;99.90
12889;DHT22;56848;49.896;11.424;2022-10-15T04:40:16;12.90;99.90
12889;DHT22;56848;49.896;11.424;2022-10-15T04:42:43;12.90;99.90
12889;DHT22;56848;49.896;11.424;2022-10-15T04:45:09;12.80;99.90
12889;DHT22;56848;49.896;11.424;2022-10-15T04:47:34;12.80;99.90
12889;DHT22;56848;49.896;11.424;2022-10-15T04:50:00;12.80;99.90
12889;DHT22;56848;49.896;11.424;2022-10-15T04:52:25;12.80;99.90
12889;DHT22;56848;49.896;11.424;2022-10-15T04:54:51;12.80;99.90
12889;DHT22;56848;49.896;11.424;2022-10-15T04:57:16;12.80;99.90
12889;DHT22;56848;49.896;11.424;2022-10-15T04:59:42;12.80;99.90
12889;DHT22;56848;49.896;11.424;2022-10-15T05:02:09;12.90;99.90
12889;DHT22;56848;49.896;11.424;2022-10-15T05:04:34;12.90;99.90
12889;DHT22;56848;49.896;11.424;2022-10-15T05:07:00;12.90;99.90
12889;DHT22;56848;49.896;11.424;2022-10-15T05:09:26;12.90;99.90
12889;DHT22;56848;49.896;11.424;2022-10-15T05:11:51;12.90;99.90
12889;DHT22;56848;49.896;11.424;2022-10-15T05:14:17;12.90;99.90
12889;DHT22;56848;49.896;11.424;2022-10-15T05:16:43;12.90;99.90
12889;DHT22;56848;49.896;11.424;2022-10-15T05:19:10;12.90;99.90
12889;DHT22;56848;49.896;11.424;2022-10-15T05:21:36;12.90;99.90
12889;DHT22;56848;49.896;11.424;2022-10-15T05:24:02;12.90;99.90
12889;DHT22;56848;49.896;11.424;2022-10-15T05:26:30;12.90;99.90
12889;DHT22;56848;49.896;11.424;2022-10-15T05:28:58;13.00;99.90
12889;DHT22;56848;49.896;11.424;2022-10-15T05:31:26;12.90;99.90
12889;DHT22;56848;49.896;11.424;2022-10-15T05:33:52;12.90;99.90
12889;DHT22;56848;49.896;11.424;2022-10-15T05:38:47;12.90;99.90
12889;DHT22;56848;49.896;11.424;2022-10-15T05:41:12;12.90;99.90
12889;DHT22;56848;49.896;11.424;2022-10-15T05:43:38;12.90;99.90
12889;DHT22;56848;49.896;11.424;2022-10-15T05:46:04;12.90;99.90
12889;DHT22;56848;49.896;11.424;2022-10-15T05:48:30;12.90;99.90
12889;DHT22;56848;49.896;11.424;2022-10-15T05:51:03;12.90;99.90
12889;DHT22;56848;49.896;11.424;2022-10-15T05:53:29;12.90;99.90
12889;DHT22;56848;49.896;11.424;2022-10-15T05:55:55;12.90;99.90
12889;DHT22;56848;49.896;11.424;2022-10-15T05:58:26;12.90;99.90
12889;DHT22;56848;49.896;11.424;2022-10-15T06:00:56;12.90;99.90
12889;DHT22;56848;49.896;11.424;2022-10-15T06:03:22;13.00;99.90
12889;DHT22;56848;49.896;11.424;2022-10-15T06:05:48;13.00;99.90
12889;DHT22;56848;49.896;11.424;2022-10-15T06:08:14;13.00;99.90
12889;DHT22;56848;49.896;11.424;2022-10-15T06:10:39;13.00;99.90
12889;DHT22;56848;49.896;11.424;2022-10-15T06:13:05;13.00;99.90
12889;DHT22;56848;49.896;11.424;2022-10-15T06:15:31;13.00;99.90
12889;DHT22;56848;49.896;11.424;2022-10-15T06:17:57;13.00;99.90
12889;DHT22;56848;49.896;11.424;2022-10-15T06:20:23;13.00;99.90
12889;DHT22;56848;49.896;11.424;2022-10-15T06:22:48;13.10;99.90
12889;DHT22;56848;49.896;11.424;2022-10-15T06:25:14;13.10;99.90
12889;DHT22;56848;49.896;11.424;2022-10-15T06:27:40;13.10;99.90
12889;DHT22;56848;49.896;11.424;2022-10-15T06:30:06;13.10;99.90
12889;DHT22;56848;49.896;11.424;2022-10-15T06:32:31;13.10;99.90
12889;DHT22;56848;49.896;11.424;2022-10-15T06:34:57;13.20;99.90
12889;DHT22;56848;49.896;11.424;2022-10-15T06:37:23;13.20;99.90
12889;DHT22;56848;49.896;11.424;2022-10-15T06:39:48;13.20;99.90
12889;DHT22;56848;49.896;11.424;2022-10-15T06:42:14;13.20;99.90
12889;DHT22;56848;49.896;11.424;2022-10-15T06:44:40;13.20;99.90
12889;DHT22;56848;49.896;11.424;2022-10-15T06:47:05;13.20;99.90
12889;DHT22;56848;49.896;11.424;2022-10-15T06:49:31;13.30;99.90
12889;DHT22;56848;49.896;11.424;2022-10-15T06:51:57;13.30;99.90
12889;DHT22;56848;49.896;11.424;2022-10-15T06:54:23;13.30;99.90
12889;DHT22;56848;49.896;11.424;2022-10-15T06:56:49;13.30;99.90
12889;DHT22;56848;49.896;11.424;2022-10-15T06:59:15;13.30;99.90
12889;DHT22;56848;49.896;11.424;2022-10-15T07:01:41;13.30;99.90
12889;DHT22;56848;49.896;11.424;2022-10-15T07:04:06;13.40;99.90
12889;DHT22;56848;49.896;11.424;2022-10-15T07:06:33;13.40;99.90
12889;DHT22;56848;49.896;11.424;2022-10-15T07:09:01;13.40;99.90
12889;DHT22;56848;49.896;11.424;2022-10-15T07:11:26;13.40;99.90
12889;DHT22;56848;49.896;11.424;2022-10-15T07:13:53;13.40;99.90
12889;DHT22;56848;49.896;11.424;2022-10-15T07:16:18;13.50;99.90
12889;DHT22;56848;49.896;11.424;2022-10-15T07:18:46;13.50;99.90
12889;DHT22;56848;49.896;11.424;2022-10-15T07:21:12;13.50;99.90
12889;DHT22;56848;49.896;11.424;2022-10-15T07:23:38;13.60;99.90
12889;DHT22;56848;49.896;11.424;2022-10-15T07:26:04;13.60;99.90
12889;DHT22;56848;49.896;11.424;2022-10-15T07:28:29;13.70;99.90
12889;DHT22;56848;49.896;11.424;2022-10-15T07:31:02;13.70;99.90
12889;DHT22;56848;49.896;11.424;2022-10-15T07:33:29;13.70;99.90
12889;DHT22;56848;49.896;11.424;2022-10-15T07:35:55;13.70;99.90
12889;DHT22;56848;49.896;11.424;2022-10-15T07:38:21;13.70;99.90
12889;DHT22;56848;49.896;11.424;2022-10-15T07:40:46;13.70;99.90
12889;DHT22;56848;49.896;11.424;2022-10-15T07:43:12;13.80;99.90
12889;DHT22;56848;49.896;11.424;2022-10-15T07:45:37;13.80;99.90
12889;DHT22;56848;49.896;11.424;2022-10-15T07:48:04;13.80;99.90
12889;DHT22;56848;49.896;11.424;2022-10-15T07:50:30;13.90;99.90
12889;DHT22;56848;49.896;11.424;2022-10-15T07:52:55;13.90;99.90
12889;DHT22;56848;49.896;11.424;2022-10-15T07:55:21;14.00;99.90
12889;DHT22;56848;49.896;11.424;2022-10-15T07:57:46;14.00;99.90
12889;DHT22;56848;49.896;11.424;2022-10-15T08:00:12;14.10;99.90
12889;DHT22;56848;49.896;11.424;2022-10-15T08:02:38;14.00;99.90
12889;DHT22;56848;49.896;11.424;2022-10-15T08:05:04;14.10;99.90
12889;DHT22;56848;49.896;11.424;2022-10-15T08:07:30;14.10;99.90
12889;DHT22;56848;49.896;11.424;2022-10-15T08:09:55;14.20;99.90
12889;DHT22;56848;49.896;11.424;2022-10-15T08:12:21;14.20;99.90
12889;DHT22;56848;49.896;11.424;2022-10-15T08:14:47;14.20;99.90
12889;DHT22;56848;49.896;11.424;2022-10-15T08:17:12;14.20;99.90
12889;DHT22;56848;49.896;11.424;2022-10-15T08:19:38;14.20;99.90
12889;DHT22;56848;49.896;11.424;2022-10-15T08:22:03;14.20;99.90
12889;DHT22;56848;49.896;11.424;2022-10-15T08:24:29;14.10;99.90
12889;DHT22;56848;49.896;11.424;2022-10-15T08:26:57;14.10;99.90
12889;DHT22;56848;49.896;11.424;2022-10-15T08:29:23;14.10;99.90
12889;DHT22;56848;49.896;11.424;2022-10-15T08:31:48;14.00;99.90
12889;DHT22;56848;49.896;11.424;2022-10-15T08:34:15;14.20;99.90
12889;DHT22;56848;49.896;11.424;2022-10-15T08:36:41;14.20;99.90
12889;DHT22;56848;49.896;11.424;2022-10-15T08:39:07;14.10;99.90
12889;DHT22;56848;49.896;11.424;2022-10-15T08:41:41;14.20;99.90
12889;DHT22;56848;49.896;11.424;2022-10-15T08:46:55;14.20;99.90
12889;DHT22;56848;49.896;11.424;2022-10-15T08:49:32;14.30;99.90
12889;DHT22;56848;49.896;11.424;2022-10-15T08:52:15;14.30;99.90
12889;DHT22;56848;49.896;11.424;2022-10-15T08:54:42;14.20;99.90
12889;DHT22;56848;49.896;11.424;2022-10-15T09:02:33;14.20;99.90
12889;DHT22;56848;49.896;11.424;2022-10-15T09:08:06;14.20;99.90
12889;DHT22;56848;49.896;11.424;2022-10-15T09:10:51;14.20;99.90
12889;DHT22;56848;49.896;11.424;2022-10-15T09:15:54;14.30;99.90
12889;DHT22;56848;49.896;11.424;2022-10-15T09:18:28;14.40;99.90
12889;DHT22;56848;49.896;11.424;2022-10-15T09:20:55;14.40;99.90
12889;DHT22;56848;49.896;11.424;2022-10-15T09:23:25;14.40;99.90
12889;DHT22;56848;49.896;11.424;2022-10-15T09:26:01;14.40;99.90
12889;DHT22;56848;49.896;11.424;2022-10-15T09:28:38;14.50;99.90
12889;DHT22;56848;49.896;11.424;2022-10-15T09:31:07;14.60;99.90
12889;DHT22;56848;49.896;11.424;2022-10-15T09:33:42;14.60;99.90
12889;DHT22;56848;49.896;11.424;2022-10-15T09:42:04;14.70;99.90
12889;DHT22;56848;49.896;11.424;2022-10-15T09:44:39;14.80;99.90
12889;DHT22;56848;49.896;11.424;2022-10-15T09:47:25;14.90;99.90
12889;DHT22;56848;49.896;11.424;2022-10-15T09:49:51;15.10;99.90
12889;DHT22;56848;49.896;11.424;2022-10-15T09:58:01;15.30;99.90
12889;DHT22;56848;49.896;11.424;2022-10-15T10:03:15;15.20;99.90
12889;DHT22;56848;49.896;11.424;2022-10-15T10:05:41;15.20;99.90
12889;DHT22;56848;49.896;11.424;2022-10-15T10:08:24;15.20;99.90
12889;DHT22;56848;49.896;11.424;2022-10-15T10:11:03;15.10;99.90
12889;DHT22;56848;49.896;11.424;2022-10-15T10:16:11;15.00;99.90
12889;DHT22;56848;49.896;11.424;2022-10-15T10:18:37;15.20;99.90
12889;DHT22;56848;49.896;11.424;2022-10-15T10:21:06;15.30;99.90
12889;DHT22;56848;49.896;11.424;2022-10-15T10:23:37;15.50;99.90
12889;DHT22;56848;49.896;11.424;2022-10-15T10:26:08;15.60;99.90
12889;DHT22;56848;49.896;11.424;2022-10-15T10:28:52;15.50;99.90
12889;DHT22;56848;49.896;11.424;2022-10-15T10:31:27;15.50;99.90
12889;DHT22;56848;49.896;11.424;2022-10-15T10:33:53;15.50;99.90
12889;DHT22;56848;49.896;11.424;2022-10-15T10:36:30;15.70;99.90
12889;DHT22;56848;49.896;11.424;2022-10-15T10:41:58;15.60;99.90
12889;DHT22;56848;49.896;11.424;2022-10-15T10:44:37;15.70;99.90
12889;DHT22;56848;49.896;11.424;2022-10-15T10:49:34;15.90;99.90
12889;DHT22;56848;49.896;11.424;2022-10-15T10:51:59;15.90;99.90
12889;DHT22;56848;49.896;11.424;2022-10-15T10:54:26;15.80;99.90
12889;DHT22;56848;49.896;11.424;2022-10-15T10:56:52;15.70;99.90
12889;DHT22;56848;49.896;11.424;2022-10-15T10:59:44;15.70;99.90
12889;DHT22;56848;49.896;11.424;2022-10-15T11:02:11;15.60;99.90
12889;DHT22;56848;49.896;11.424;2022-10-15T11:04:38;15.60;99.90
12889;DHT22;56848;49.896;11.424;2022-10-15T11:07:47;15.70;99.90
12889;DHT22;56848;49.896;11.424;2022-10-15T11:10:21;15.60;99.90
12889;DHT22;56848;49.896;11.424;2022-10-15T11:16:01;15.60;99.90
12889;DHT22;56848;49.896;11.424;2022-10-15T11:18:59;15.60;99.90
12889;DHT22;56848;49.896;11.424;2022-10-15T11:21:53;15.60;99.90
12889;DHT22;56848;49.896;11.424;2022-10-15T11:27:55;16.00;99.90
12889;DHT22;56848;49.896;11.424;2022-10-15T11:49:01;16.50;99.90
12889;DHT22;56848;49.896;11.424;2022-10-15T11:54:29;16.40;99.90
12889;DHT22;56848;49.896;11.424;2022-10-15T11:57:01;16.50;99.90
12889;DHT22;56848;49.896;11.424;2022-10-15T12:02:10;16.50;99.90
12889;DHT22;56848;49.896;11.424;2022-10-15T12:04:46;16.40;99.90
12889;DHT22;56848;49.896;11.424;2022-10-15T12:07:22;16.50;99.90
12889;DHT22;56848;49.896;11.424;2022-10-15T12:09:52;16.50;99.90
12889;DHT22;56848;49.896;11.424;2022-10-15T12:15:34;16.50;99.90
12889;DHT22;56848;49.896;11.424;2022-10-15T12:18:15;16.50;99.90
12889;DHT22;56848;49.896;11.424;2022-10-15T12:20:43;16.60;99.90
12889;DHT22;56848;49.896;11.424;2022-10-15T12:23:39;16.40;99.90
12889;DHT22;56848;49.896;11.424;2022-10-15T12:26:32;16.30;99.90
12889;DHT22;56848;49.896;11.424;2022-10-15T12:29:00;16.30;99.90
12889;DHT22;56848;49.896;11.424;2022-10-15T12:31:52;16.40;99.90
12889;DHT22;56848;49.896;11.424;2022-10-15T12:36:59;16.40;99.90
12889;DHT22;56848;49.896;11.424;2022-10-15T12:39:26;16.30;99.90
12889;DHT22;56848;49.896;11.424;2022-10-15T12:41:51;16.30;99.90
12889;DHT22;56848;49.896;11.424;2022-10-15T12:44:24;16.40;99.90
12889;DHT22;56848;49.896;11.424;2022-10-15T12:46:51;16.20;99.90
12889;DHT22;56848;49.896;11.424;2022-10-15T12:51:53;16.10;99.90
12889;DHT22;56848;49.896;11.424;2022-10-15T12:57:00;15.90;99.90
12889;DHT22;56848;49.896;11.424;2022-10-15T12:59:52;15.90;99.90
12889;DHT22;56848;49.896;11.424;2022-10-15T13:05:03;15.90;99.90
12889;DHT22;56848;49.896;11.424;2022-10-15T13:07:32;15.80;99.90
12889;DHT22;56848;49.896;11.424;2022-10-15T13:10:00;16.00;99.90
12889;DHT22;56848;49.896;11.424;2022-10-15T13:12:27;15.90;99.90
12889;DHT22;56848;49.896;11.424;2022-10-15T13:14:59;16.10;99.90
12889;DHT22;56848;49.896;11.424;2022-10-15T13:17:28;16.10;99.90
12889;DHT22;56848;49.896;11.424;2022-10-15T13:20:06;16.20;99.90
12889;DHT22;56848;49.896;11.424;2022-10-15T13:22:34;16.30;99.90
12889;DHT22;56848;49.896;11.424;2022-10-15T13:25:01;16.20;99.90
12889;DHT22;56848;49.896;11.424;2022-10-15T13:27:35;16.10;99.90
12889;DHT22;56848;49.896;11.424;2022-10-15T13:32:37;16.10;99.90
12889;DHT22;56848;49.896;11.424;2022-10-15T13:35:10;16.00;99.90
12889;DHT22;56848;49.896;11.424;2022-10-15T13:37:37;15.90;99.90
12889;DHT22;56848;49.896;11.424;2022-10-15T13:40:05;15.80;99.90
12889;DHT22;56848;49.896;11.424;2022-10-15T13:42:31;15.80;99.90
12889;DHT22;56848;49.896;11.424;2022-10-15T13:45:00;15.80;99.90
12889;DHT22;56848;49.896;11.424;2022-10-15T13:47:38;15.60;99.90
12889;DHT22;56848;49.896;11.424;2022-10-15T13:50:25;15.60;99.90
12889;DHT22;56848;49.896;11.424;2022-10-15T13:52:57;15.80;99.90
12889;DHT22;56848;49.896;11.424;2022-10-15T13:55:31;16.00;99.90
12889;DHT22;56848;49.896;11.424;2022-10-15T14:00:55;16.20;99.90
12889;DHT22;56848;49.896;11.424;2022-10-15T14:03:23;16.20;99.90
12889;DHT22;56848;49.896;11.424;2022-10-15T14:05:51;16.00;99.90
12889;DHT22;56848;49.896;11.424;2022-10-15T14:10:47;15.90;99.90
12889;DHT22;56848;49.896;11.424;2022-10-15T14:13:12;16.10;99.90
12889;DHT22;56848;49.896;11.424;2022-10-15T14:18:11;15.90;99.90
12889;DHT22;56848;49.896;11.424;2022-10-15T14:20:45;15.80;99.90
12889;DHT22;56848;49.896;11.424;2022-10-15T14:23:22;15.80;99.90
12889;DHT22;56848;49.896;11.424;2022-10-15T14:25:57;15.70;99.90
12889;DHT22;56848;49.896;11.424;2022-10-15T14:28:24;15.60;99.90
12889;DHT22;56848;49.896;11.424;2022-10-15T14:30:50;15.70;99.90
12889;DHT22;56848;49.896;11.424;2022-10-15T14:33:30;15.70;99.90
12889;DHT22;56848;49.896;11.424;2022-10-15T14:36:24;15.60;99.90
12889;DHT22;56848;49.896;11.424;2022-10-15T14:38:51;15.70;99.90
12889;DHT22;56848;49.896;11.424;2022-10-15T14:41:20;15.90;99.90
12889;DHT22;56848;49.896;11.424;2022-10-15T14:44:16;15.90;99.90
12889;DHT22;56848;49.896;11.424;2022-10-15T14:46:48;15.80;99.90
12889;DHT22;56848;49.896;11.424;2022-10-15T14:49:27;15.70;99.90
12889;DHT22;56848;49.896;11.424;2022-10-15T14:52:02;15.50;99.90
12889;DHT22;56848;49.896;11.424;2022-10-15T14:54:42;15.50;99.90
12889;DHT22;56848;49.896;11.424;2022-10-15T14:57:35;15.50;99.90
12889;DHT22;56848;49.896;11.424;2022-10-15T15:00:03;15.60;99.90
12889;DHT22;56848;49.896;11.424;2022-10-15T15:02:29;15.70;99.90
12889;DHT22;56848;49.896;11.424;2022-10-15T15:07:33;15.80;99.90
12889;DHT22;56848;49.896;11.424;2022-10-15T15:09:58;15.70;99.90
12889;DHT22;56848;49.896;11.424;2022-10-15T15:12:25;15.50;99.90
12889;DHT22;56848;49.896;11.424;2022-10-15T15:14:51;15.50;99.90
12889;DHT22;56848;49.896;11.424;2022-10-15T15:17:22;15.40;99.90
12889;DHT22;56848;49.896;11.424;2022-10-15T15:19:50;15.40;99.90
12889;DHT22;56848;49.896;11.424;2022-10-15T15:22:29;15.40;99.90
12889;DHT22;56848;49.896;11.424;2022-10-15T15:24:57;15.40;99.90
12889;DHT22;56848;49.896;11.424;2022-10-15T15:27:29;15.40;99.90
12889;DHT22;56848;49.896;11.424;2022-10-15T15:29:56;15.30;99.90
12889;DHT22;56848;49.896;11.424;2022-10-15T15:32:22;15.30;99.90
12889;DHT22;56848;49.896;11.424;2022-10-15T15:34:49;15.20;99.90
12889;DHT22;56848;49.896;11.424;2022-10-15T15:37:17;15.20;99.90
12889;DHT22;56848;49.896;11.424;2022-10-15T15:39:43;15.30;99.90
12889;DHT22;56848;49.896;11.424;2022-10-15T15:42:12;15.20;99.90
12889;DHT22;56848;49.896;11.424;2022-10-15T15:44:38;15.30;99.90
12889;DHT22;56848;49.896;11.424;2022-10-15T15:47:04;15.30;99.90
12889;DHT22;56848;49.896;11.424;2022-10-15T15:49:29;15.30;99.90
12889;DHT22;56848;49.896;11.424;2022-10-15T15:51:55;15.20;99.90
12889;DHT22;56848;49.896;11.424;2022-10-15T15:54:20;15.20;99.90
12889;DHT22;56848;49.896;11.424;2022-10-15T15:56:46;15.10;99.90
12889;DHT22;56848;49.896;11.424;2022-10-15T15:59:11;15.10;99.90
12889;DHT22;56848;49.896;11.424;2022-10-15T16:01:37;15.10;99.90
12889;DHT22;56848;49.896;11.424;2022-10-15T16:04:03;15.00;99.90
12889;DHT22;56848;49.896;11.424;2022-10-15T16:06:28;15.00;99.90
12889;DHT22;56848;49.896;11.424;2022-10-15T16:08:54;15.00;99.90
12889;DHT22;56848;49.896;11.424;2022-10-15T16:11:19;15.10;99.90
12889;DHT22;56848;49.896;11.424;2022-10-15T16:13:45;15.00;99.90
12889;DHT22;56848;49.896;11.424;2022-10-15T16:16:11;15.00;99.90
12889;DHT22;56848;49.896;11.424;2022-10-15T16:18:37;15.00;99.90
12889;DHT22;56848;49.896;11.424;2022-10-15T16:21:03;15.00;99.90
12889;DHT22;56848;49.896;11.424;2022-10-15T16:23:28;15.00;99.90
12889;DHT22;56848;49.896;11.424;2022-10-15T16:25:54;14.90;99.90
12889;DHT22;56848;49.896;11.424;2022-10-15T16:28:22;15.00;99.90
12889;DHT22;56848;49.896;11.424;2022-10-15T16:30:47;15.00;99.90
12889;DHT22;56848;49.896;11.424;2022-10-15T16:33:13;15.00;99.90
12889;DHT22;56848;49.896;11.424;2022-10-15T16:35:39;14.90;99.90
12889;DHT22;56848;49.896;11.424;2022-10-15T16:38:05;14.90;99.90
12889;DHT22;56848;49.896;11.424;2022-10-15T16:40:31;14.90;99.90
12889;DHT22;56848;49.896;11.424;2022-10-15T16:42:56;14.80;99.90
12889;DHT22;56848;49.896;11.424;2022-10-15T16:45:22;14.80;99.90
12889;DHT22;56848;49.896;11.424;2022-10-15T16:47:48;14.90;99.90
12889;DHT22;56848;49.896;11.424;2022-10-15T16:50:13;14.90;99.90
12889;DHT22;56848;49.896;11.424;2022-10-15T16:52:39;14.80;99.90
12889;DHT22;56848;49.896;11.424;2022-10-15T16:55:05;14.90;99.90
12889;DHT22;56848;49.896;11.424;2022-10-15T16:57:31;14.80;99.90
12889;DHT22;56848;49.896;11.424;2022-10-15T16:59:56;14.90;99.90
12889;DHT22;56848;49.896;11.424;2022-10-15T17:02:22;14.70;99.90
12889;DHT22;56848;49.896;11.424;2022-10-15T17:04:47;14.90;99.90
12889;DHT22;56848;49.896;11.424;2022-10-15T17:07:13;14.80;99.90
12889;DHT22;56848;49.896;11.424;2022-10-15T17:09:39;14.80;99.90
12889;DHT22;56848;49.896;11.424;2022-10-15T17:12:04;14.80;99.90
12889;DHT22;56848;49.896;11.424;2022-10-15T17:14:30;14.80;99.90
12889;DHT22;56848;49.896;11.424;2022-10-15T17:16:56;14.80;99.90
12889;DHT22;56848;49.896;11.424;2022-10-15T17:19:23;14.80;99.90
12889;DHT22;56848;49.896;11.424;2022-10-15T17:21:49;14.80;99.90
12889;DHT22;56848;49.896;11.424;2022-10-15T17:24:17;14.80;99.90
12889;DHT22;56848;49.896;11.424;2022-10-15T17:26:44;14.80;99.90
12889;DHT22;56848;49.896;11.424;2022-10-15T17:29:15;14.60;99.90
12889;DHT22;56848;49.896;11.424;2022-10-15T17:31:44;14.70;99.90
12889;DHT22;56848;49.896;11.424;2022-10-15T17:34:11;14.70;99.90
12889;DHT22;56848;49.896;11.424;2022-10-15T17:36:39;14.70;99.90
12889;DHT22;56848;49.896;11.424;2022-10-15T17:39:10;14.70;99.90
12889;DHT22;56848;49.896;11.424;2022-10-15T17:41:37;14.60;99.90
12889;DHT22;56848;49.896;11.424;2022-10-15T17:44:03;14.60;99.90
12889;DHT22;56848;49.896;11.424;2022-10-15T17:46:29;14.50;99.90
12889;DHT22;56848;49.896;11.424;2022-10-15T17:48:55;14.60;99.90
12889;DHT22;56848;49.896;11.424;2022-10-15T17:51:24;14.60;99.90
12889;DHT22;56848;49.896;11.424;2022-10-15T17:53:51;14.60;99.90
12889;DHT22;56848;49.896;11.424;2022-10-15T17:56:23;14.60;99.90
12889;DHT22;56848;49.896;11.424;2022-10-15T17:58:49;14.60;99.90
12889;DHT22;56848;49.896;11.424;2022-10-15T18:01:35;14.60;99.90
12889;DHT22;56848;49.896;11.424;2022-10-15T18:04:02;14.60;99.90
12889;DHT22;56848;49.896;11.424;2022-10-15T18:06:28;14.60;99.90
12889;DHT22;56848;49.896;11.424;2022-10-15T18:08:54;14.60;99.90
12889;DHT22;56848;49.896;11.424;2022-10-15T18:11:29;14.60;99.90
12889;DHT22;56848;49.896;11.424;2022-10-15T18:13:55;14.60;99.90
12889;DHT22;56848;49.896;11.424;2022-10-15T18:16:21;14.60;99.90
12889;DHT22;56848;49.896;11.424;2022-10-15T18:18:46;14.60;99.90
12889;DHT22;56848;49.896;11.424;2022-10-15T18:21:17;14.60;99.90
12889;DHT22;56848;49.896;11.424;2022-10-15T18:23:43;14.60;99.90
12889;DHT22;56848;49.896;11.424;2022-10-15T18:26:12;14.60;99.90
12889;DHT22;56848;49.896;11.424;2022-10-15T18:28:40;14.60;99.90
12889;DHT22;56848;49.896;11.424;2022-10-15T18:31:06;14.70;99.90
12889;DHT22;56848;49.896;11.424;2022-10-15T18:33:33;14.60;99.90
12889;DHT22;56848;49.896;11.424;2022-10-15T18:36:16;14.60;99.90
12889;DHT22;56848;49.896;11.424;2022-10-15T18:38:43;14.60;99.90
12889;DHT22;56848;49.896;11.424;2022-10-15T18:41:15;14.70;99.90
12889;DHT22;56848;49.896;11.424;2022-10-15T18:43:41;14.60;99.90
12889;DHT22;56848;49.896;11.424;2022-10-15T18:46:06;14.60;99.90
12889;DHT22;56848;49.896;11.424;2022-10-15T18:48:32;14.60;99.90
12889;DHT22;56848;49.896;11.424;2022-10-15T18:50:57;14.60;99.90
12889;DHT22;56848;49.896;11.424;2022-10-15T18:53:23;14.60;99.90
12889;DHT22;56848;49.896;11.424;2022-10-15T18:55:50;14.70;99.90
12889;DHT22;56848;49.896;11.424;2022-10-15T18:58:15;14.60;99.90
12889;DHT22;56848;49.896;11.424;2022-10-15T19:00:41;14.60;99.90
12889;DHT22;56848;49.896;11.424;2022-10-15T19:03:07;14.60;99.90
12889;DHT22;56848;49.896;11.424;2022-10-15T19:05:34;14.70;99.90
12889;DHT22;56848;49.896;11.424;2022-10-15T19:08:00;14.50;99.90
12889;DHT22;56848;49.896;11.424;2022-10-15T19:10:28;14.50;99.90
12889;DHT22;56848;49.896;11.424;2022-10-15T19:12:54;14.50;99.90
12889;DHT22;56848;49.896;11.424;2022-10-15T19:15:19;14.50;99.90
12889;DHT22;56848;49.896;11.424;2022-10-15T19:17:45;14.50;99.90
12889;DHT22;56848;49.896;11.424;2022-10-15T19:20:11;14.50;99.90
12889;DHT22;56848;49.896;11.424;2022-10-15T19:22:38;14.50;99.90
12889;DHT22;56848;49.896;11.424;2022-10-15T19:25:04;14.50;99.90
12889;DHT22;56848;49.896;11.424;2022-10-15T19:27:31;14.40;99.90
12889;DHT22;56848;49.896;11.424;2022-10-15T19:29:57;14.40;99.90
12889;DHT22;56848;49.896;11.424;2022-10-15T19:32:22;14.50;99.90
12889;DHT22;56848;49.896;11.424;2022-10-15T19:34:48;14.40;99.90
12889;DHT22;56848;49.896;11.424;2022-10-15T19:37:14;14.30;99.90
12889;DHT22;56848;49.896;11.424;2022-10-15T19:39:39;14.30;99.90
12889;DHT22;56848;49.896;11.424;2022-10-15T19:42:05;14.30;99.90
12889;DHT22;56848;49.896;11.424;2022-10-15T19:44:31;14.30;99.90
12889;DHT22;56848;49.896;11.424;2022-10-15T19:46:57;14.30;99.90
12889;DHT22;56848;49.896;11.424;2022-10-15T19:49:23;14.30;99.90
12889;DHT22;56848;49.896;11.424;2022-10-15T19:51:49;14.30;99.90
12889;DHT22;56848;49.896;11.424;2022-10-15T19:54:15;14.30;99.90
12889;DHT22;56848;49.896;11.424;2022-10-15T19:56:41;14.30;99.90
12889;DHT22;56848;49.896;11.424;2022-10-15T19:59:08;14.30;99.90
12889;DHT22;56848;49.896;11.424;2022-10-15T20:01:34;14.20;99.90
12889;DHT22;56848;49.896;11.424;2022-10-15T20:04:00;14.20;99.90
12889;DHT22;56848;49.896;11.424;2022-10-15T20:06:27;14.20;99.90
12889;DHT22;56848;49.896;11.424;2022-10-15T20:08:54;14.20;99.90
12889;DHT22;56848;49.896;11.424;2022-10-15T20:11:20;14.20;99.90
12889;DHT22;56848;49.896;11.424;2022-10-15T20:13:46;14.20;99.90
12889;DHT22;56848;49.896;11.424;2022-10-15T20:16:12;14.20;99.90
12889;DHT22;56848;49.896;11.424;2022-10-15T20:18:40;14.20;99.90
12889;DHT22;56848;49.896;11.424;2022-10-15T20:21:11;14.20;99.90
12889;DHT22;56848;49.896;11.424;2022-10-15T20:23:38;14.20;99.90
12889;DHT22;56848;49.896;11.424;2022-10-15T20:26:06;14.20;99.90
12889;DHT22;56848;49.896;11.424;2022-10-15T20:28:34;14.20;99.90
12889;DHT22;56848;49.896;11.424;2022-10-15T20:31:07;14.20;99.90
12889;DHT22;56848;49.896;11.424;2022-10-15T20:33:34;14.20;99.90
12889;DHT22;56848;49.896;11.424;2022-10-15T20:36:11;14.20;99.90
12889;DHT22;56848;49.896;11.424;2022-10-15T20:38:38;14.20;99.90
12889;DHT22;56848;49.896;11.424;2022-10-15T20:41:08;14.20;99.90
12889;DHT22;56848;49.896;11.424;2022-10-15T20:43:34;14.20;99.90
12889;DHT22;56848;49.896;11.424;2022-10-15T20:46:00;14.20;99.90
12889;DHT22;56848;49.896;11.424;2022-10-15T20:48:26;14.20;99.90
12889;DHT22;56848;49.896;11.424;2022-10-15T20:50:52;14.20;99.90
12889;DHT22;56848;49.896;11.424;2022-10-15T20:53:21;14.20;99.90
12889;DHT22;56848;49.896;11.424;2022-10-15T20:55:46;14.20;99.90
12889;DHT22;56848;49.896;11.424;2022-10-15T20:58:12;14.10;99.90
12889;DHT22;56848;49.896;11.424;2022-10-15T21:00:38;14.10;99.90
12889;DHT22;56848;49.896;11.424;2022-10-15T21:03:04;14.10;99.90